< Cyclone 195712 1957 Season Cyclone 195714 >
Cyclone 195713 (unnamed)
General InformationTrack Information on Google Maps || ResourceGoogle EarthGE AnimationAtom FeedGeoJSON
Detalied Best Track (Time Zone = UTC)
Year Month Day Hour Lat. Long. Pressure (hPa) Wind (kt) Class Image Chart
1957 1 26 01 -8.9 99.0 1000 0 0 -- --
1957 1 26 04 -9.0 98.7 998 0 0 -- --
1957 1 26 07 -9.1 98.4 998 0 0 -- --
1957 1 26 10 -9.2 98.1 997 0 0 -- --
1957 1 26 16 -9.3 97.5 997 0 0 -- --
1957 1 26 19 -9.4 97.2 996 0 0 -- --
1957 1 26 22 -9.5 96.9 996 0 0 -- --
1957 1 27 01 -9.6 96.6 995 0 0 -- --
1957 1 27 04 -9.8 95.9 994 0 0 -- --
1957 1 27 07 -10.1 95.2 993 0 0 -- --
1957 1 27 10 -10.3 94.8 993 0 0 -- --
1957 1 27 16 -10.6 94.4 992 0 0 -- --
1957 1 27 19 -10.8 94.0 991 0 0 -- --
1957 1 27 22 -11.0 93.8 990 0 0 -- --
1957 1 28 01 -11.2 93.6 990 0 0 -- --
1957 1 28 04 -11.5 93.4 989 0 0 -- --
1957 1 28 07 -11.9 93.2 988 0 0 -- --
1957 1 28 10 -12.3 93.0 988 0 0 -- --
1957 1 28 16 -12.5 92.8 987 0 0 -- --
1957 1 28 19 -12.6 92.7 986 0 0 -- --
1957 1 28 22 -12.8 92.6 986 0 0 -- --
1957 1 29 01 -12.9 92.5 985 0 0 -- --
1957 1 29 07 -13.4 92.3 983 0 0 -- --
1957 1 29 10 -13.6 92.3 982 0 0 -- --
1957 1 29 16 -14.1 92.2 982 0 0 -- --
1957 1 29 22 -14.6 92.1 981 0 0 -- --
1957 1 30 01 -14.9 92.0 980 0 0 -- --
1957 1 30 04 -15.2 92.1 979 0 0 -- --
1957 1 30 07 -15.5 92.3 978 0 0 -- --
1957 1 30 10 -15.9 92.5 978 0 0 -- --
1957 1 30 16 -16.3 92.6 977 0 0 -- --
1957 1 30 22 -16.5 93.0 976 0 0 -- --
1957 1 31 01 -16.6 93.2 975 0 0 -- --
1957 1 31 04 -16.7 93.4 970 0 0 -- --
1957 1 31 07 -16.9 93.6 965 0 0 -- --
1957 1 31 10 -17.1 93.8 960 0 0 -- --
1957 1 31 16 -17.3 94.0 955 0 0 -- --
1957 1 31 22 -17.7 94.3 946 0 0 -- --
1957 2 1 01 -17.9 94.5 943 0 0 -- --
1957 2 1 04 -18.1 95.0 944 0 0 -- --
1957 2 1 07 -18.4 95.5 945 0 0 -- --
1957 2 1 16 -19.1 96.6 947 0 0 -- --
1957 2 1 19 -19.4 97.0 948 0 0 -- --
1957 2 1 22 -19.6 97.5 949 0 0 -- --
1957 2 2 01 -19.9 98.0 950 0 0 -- --
1957 2 2 07 -20.1 99.6 960 0 0 -- --
1957 2 2 16 -20.4 100.8 970 0 0 -- --
1957 2 2 19 -20.5 101.4 974 0 0 -- --
1957 2 2 22 -20.6 101.7 977 0 0 -- --
1957 2 3 01 -20.7 102.0 980 0 0 -- --
1957 2 3 04 -20.7 102.5 980 0 0 -- --
1957 2 3 07 -20.7 103.0 980 0 0 -- --
1957 2 3 16 -20.8 104.5 980 0 0 -- --
1957 2 4 01 -20.9 106.0 980 0 0 -- --
1957 2 4 07 -19.9 104.5 983 0 0 -- --
1957 2 4 16 -18.7 103.2 987 0 0 -- --
1957 2 4 19 -18.4 102.0 988 0 0 -- --
1957 2 4 22 -18.0 101.3 989 0 0 -- --
1957 2 5 01 -17.6 100.7 990 0 0 -- --
1957 2 5 04 -17.4 100.7 990 0 0 -- --
1957 2 5 07 -17.2 100.7 991 0 0 -- --
1957 2 5 10 -17.1 100.6 992 0 0 -- --
1957 2 5 16 -16.8 100.6 993 0 0 -- --
1957 2 5 22 -16.5 100.5 994 0 0 -- --
1957 2 6 01 -16.4 100.5 995 0 0 -- --
1957 2 6 04 -16.3 100.6 995 0 0 -- --
1957 2 6 07 -16.2 100.7 995 0 0 -- --
1957 2 6 10 -16.1 100.8 995 0 0 -- --
1957 2 6 16 -15.8 101.0 995 0 0 -- --
1957 2 6 19 -15.6 101.1 995 0 0 -- --
1957 2 6 22 -15.5 101.2 995 0 0 -- --
1957 2 7 01 -15.3 101.3 995 0 0 -- --
1957 2 7 04 -15.2 101.5 994 0 0 -- --
1957 2 7 07 -15.1 101.7 993 0 0 -- --
1957 2 7 10 -15.1 101.9 992 0 0 -- --
1957 2 7 16 -15.0 102.4 992 0 0 -- --
1957 2 7 19 -15.0 102.6 991 0 0 -- --
1957 2 7 22 -14.9 102.8 991 0 0 -- --
1957 2 8 01 -14.9 103.0 990 0 0 -- --
1957 2 8 04 -14.8 103.2 992 0 0 -- --
1957 2 8 10 -14.6 103.6 994 0 0 -- --
1957 2 8 16 -14.5 103.8 996 0 0 -- --
1957 2 9 01 -14.3 104.4 1000 0 0 -- --
< Cyclone 195712 1957 Season Cyclone 195714 >

Help